Time;durP1;ratioP1;P1;durP2;ratioP2;P2;SDS_P1;SDS_P2;PMS_P1;PMS_P2;Temp;Humidity;BMP_temperature;BMP_pressure;BME280_temperature;BME280_humidity;BME280_pressure;Samples;Min_cycle;Max_cycle;Signal;HPM_P1;HPM_P2
2022/05/12 00:00:23;;;;;;;12.10;5.40;;;13.10;88.00;;;;;;5042401;28;20040;-45
2022/05/12 00:02:50;;;;;;;13.33;5.50;;;13.10;88.10;;;;;;5027739;28;20046;-47
2022/05/12 00:05:18;;;;;;;10.80;4.72;;;13.10;88.20;;;;;;5012673;28;20057;-45
2022/05/12 00:07:45;;;;;;;11.50;5.45;;;13.10;88.30;;;;;;5012890;28;20041;-44
2022/05/12 00:10:18;;;;;;;14.90;5.25;;;13.10;88.30;;;;;;5013158;28;20045;-46
2022/05/12 00:12:46;;;;;;;12.68;4.32;;;13.10;88.30;;;;;;5012791;28;20022;-44
2022/05/12 00:15:16;;;;;;;10.18;4.40;;;13.10;88.40;;;;;;5012602;28;20033;-45
2022/05/12 00:17:44;;;;;;;12.70;4.70;;;13.00;88.50;;;;;;5012603;28;20022;-45
2022/05/12 00:20:13;;;;;;;12.52;4.90;;;13.00;88.40;;;;;;5040046;28;20427;-45
2022/05/12 00:22:40;;;;;;;17.15;7.20;;;12.90;88.60;;;;;;5013046;28;20065;-46
2022/05/12 00:25:19;;;;;;;23.58;10.52;;;12.90;88.80;;;;;;5012471;28;20359;-47
2022/05/12 00:27:46;;;;;;;26.10;9.75;;;12.60;88.90;;;;;;5012669;28;20026;-48
2022/05/12 00:30:12;;;;;;;25.08;10.52;;;12.40;89.00;;;;;;5011890;28;20462;-47
2022/05/12 00:32:42;;;;;;;34.40;8.85;;;12.20;89.10;;;;;;5013315;28;20060;-46
2022/05/12 00:35:12;;;;;;;31.80;7.93;;;12.10;89.50;;;;;;5014939;28;20013;-47
2022/05/12 00:37:39;;;;;;;16.85;5.60;;;11.90;89.40;;;;;;5013643;28;20030;-46
2022/05/12 00:40:07;;;;;;;8.30;3.25;;;11.80;89.30;;;;;;5043472;28;20525;-46
2022/05/12 00:42:34;;;;;;;10.10;3.33;;;11.60;89.10;;;;;;5013401;28;20061;-48
2022/05/12 00:45:00;;;;;;;6.03;2.03;;;11.50;89.30;;;;;;5013081;28;20021;-46
2022/05/12 00:47:30;;;;;;;7.25;1.65;;;11.40;89.30;;;;;;5012717;28;20038;-49
2022/05/12 00:49:56;;;;;;;;;;;11.40;89.40;;;;;;5013573;28;20034;-47
2022/05/12 00:52:29;;;;;;;4.97;2.30;;;11.40;89.60;;;;;;5012445;28;19909;-46
2022/05/12 00:55:04;;;;;;;8.77;2.75;;;11.30;89.70;;;;;;5020214;28;20037;-44
2022/05/12 00:57:40;;;;;;;6.68;3.13;;;11.40;90.00;;;;;;5051741;28;20025;-45
2022/05/12 01:00:11;;;;;;;5.85;3.08;;;11.20;90.00;;;;;;5033330;28;20028;-46
2022/05/12 01:02:40;;;;;;;6.80;2.85;;;11.30;89.90;;;;;;5040889;28;20026;-45
2022/05/12 01:05:07;;;;;;;5.45;2.97;;;11.30;89.90;;;;;;5007333;28;20033;-44
2022/05/12 01:07:33;;;;;;;7.72;3.17;;;11.30;89.90;;;;;;5051693;28;20040;-45
2022/05/12 01:10:03;;;;;;;6.15;2.88;;;11.30;89.90;;;;;;5050986;28;20124;-44
2022/05/12 01:12:30;;;;;;;;;;;11.30;90.00;;;;;;5050502;28;20361;-44
2022/05/12 01:14:58;;;;;;;9.80;3.13;;;11.20;89.90;;;;;;5034291;28;20233;-46
2022/05/12 01:17:25;;;;;;;7.93;2.10;;;11.30;89.80;;;;;;5050810;28;20035;-44
2022/05/12 01:19:53;;;;;;;8.85;2.25;;;11.30;89.70;;;;;;5051323;28;20318;-44
2022/05/12 01:22:30;;;;;;;6.82;2.95;;;11.30;89.60;;;;;;5049441;28;20021;-45
2022/05/12 01:25:01;;;;;;;10.80;4.35;;;11.20;89.30;;;;;;5050212;28;20556;-44
2022/05/12 01:27:30;;;;;;;8.25;2.90;;;11.20;89.30;;;;;;5030114;28;20049;-44
2022/05/12 01:29:58;;;;;;;8.47;3.03;;;11.20;89.00;;;;;;5051014;28;20347;-44
2022/05/12 01:32:27;;;;;;;8.40;2.42;;;11.20;88.80;;;;;;5049042;28;20039;-44
2022/05/12 01:34:55;;;;;;;9.15;2.38;;;11.00;88.70;;;;;;5069510;28;20037;-44
2022/05/12 01:37:28;;;;;;;11.05;2.35;;;10.90;88.60;;;;;;5051045;28;20374;-45
2022/05/12 01:39:55;;;;;;;5.97;2.33;;;10.90;88.40;;;;;;5053692;28;20438;-43
2022/05/12 01:42:21;;;;;;;9.38;3.03;;;10.90;88.40;;;;;;5034373;28;20037;-43
2022/05/12 01:44:48;;;;;;;6.90;2.30;;;10.90;88.40;;;;;;5037698;28;20029;-46
2022/05/12 01:47:15;;;;;;;10.75;4.72;;;10.90;88.40;;;;;;5053806;28;20028;-43
2022/05/12 01:49:42;;;;;;;12.70;3.33;;;10.80;88.40;;;;;;5069581;28;20047;-46
2022/05/12 01:52:12;;;;;;;6.43;2.65;;;10.80;88.40;;;;;;5055707;28;20025;-44
2022/05/12 01:54:38;;;;;;;5.20;2.22;;;10.70;88.20;;;;;;5053908;28;20116;-44
2022/05/12 01:57:05;;;;;;;11.80;2.65;;;10.60;88.00;;;;;;5054532;28;20420;-43
2022/05/12 01:59:32;;;;;;;5.30;1.98;;;10.60;88.20;;;;;;5052030;28;20064;-47
2022/05/12 02:01:59;;;;;;;9.05;2.15;;;10.60;88.00;;;;;;5046355;28;20033;-44
2022/05/12 02:04:26;;;;;;;8.57;2.25;;;10.60;87.90;;;;;;5053551;28;20040;-46
2022/05/12 02:06:51;;;;;;;9.63;2.25;;;10.50;87.80;;;;;;5047484;28;20036;-44
2022/05/12 02:09:19;;;;;;;4.45;1.48;;;10.50;87.80;;;;;;5052484;28;20028;-44
2022/05/12 02:11:45;;;;;;;5.88;1.88;;;10.50;87.60;;;;;;5054364;28;20041;-44
2022/05/12 02:14:14;;;;;;;6.18;1.90;;;10.50;87.60;;;;;;5036609;28;20036;-43
2022/05/12 02:16:40;;;;;;;8.18;2.10;;;10.40;87.30;;;;;;5054210;28;20052;-44
2022/05/12 02:19:09;;;;;;;11.45;3.03;;;10.40;87.70;;;;;;5052424;28;20037;-44
2022/05/12 02:21:37;;;;;;;6.70;2.70;;;10.40;87.50;;;;;;5054496;28;20407;-44
2022/05/12 02:24:04;;;;;;;6.78;2.13;;;10.40;87.60;;;;;;5053388;28;20438;-44
2022/05/12 02:26:31;;;;;;;13.65;2.25;;;10.40;87.60;;;;;;5036743;28;20025;-44
2022/05/12 02:28:57;;;;;;;8.40;2.13;;;10.30;87.20;;;;;;5052995;28;20029;-44
2022/05/12 02:31:24;;;;;;;5.88;2.42;;;10.30;87.20;;;;;;5053920;28;20108;-44
2022/05/12 02:33:51;;;;;;;6.20;2.42;;;10.20;87.20;;;;;;5035102;28;20386;-44
2022/05/12 02:36:18;;;;;;;5.75;2.75;;;10.20;87.50;;;;;;5039190;28;20831;-44
2022/05/12 02:38:46;;;;;;;9.52;3.45;;;10.20;87.50;;;;;;5035524;28;20664;-44
2022/05/12 02:41:16;;;;;;;10.43;2.97;;;10.20;87.30;;;;;;5047253;28;20029;-45
2022/05/12 02:43:41;;;;;;;9.93;2.75;;;10.10;87.50;;;;;;5048358;28;20025;-45
2022/05/12 02:46:11;;;;;;;7.10;2.85;;;10.20;87.60;;;;;;5050827;28;20060;-47
2022/05/12 02:48:41;;;;;;;8.70;2.70;;;10.10;87.60;;;;;;5014784;28;20037;-44
2022/05/12 02:51:09;;;;;;;8.77;3.20;;;10.20;87.70;;;;;;5033224;28;20030;-44
2022/05/12 02:53:37;;;;;;;4.65;2.65;;;10.10;87.80;;;;;;5052199;28;20044;-46
2022/05/12 02:56:05;;;;;;;7.75;2.95;;;10.10;87.60;;;;;;5052539;28;20053;-44
2022/05/12 02:58:33;;;;;;;8.80;3.15;;;10.10;87.70;;;;;;5052225;28;20032;-46
2022/05/12 03:01:05;;;;;;;10.63;3.53;;;10.00;87.70;;;;;;5051304;28;20071;-45
2022/05/12 03:03:31;;;;;;;11.35;4.30;;;10.00;88.00;;;;;;5046774;28;20451;-44
2022/05/12 03:05:58;;;;;;;10.60;3.33;;;10.00;87.80;;;;;;5035086;28;20029;-45
2022/05/12 03:08:25;;;;;;;13.15;3.90;;;9.90;87.80;;;;;;5052590;28;20040;-46
2022/05/12 03:10:52;;;;;;;9.40;3.22;;;9.90;88.10;;;;;;5052906;28;20044;-45
2022/05/12 03:13:20;;;;;;;8.13;3.15;;;9.90;88.10;;;;;;5052616;28;20043;-46
2022/05/12 03:15:46;;;;;;;9.60;3.08;;;10.00;88.20;;;;;;5051906;28;20106;-46
2022/05/12 03:18:13;;;;;;;8.05;3.25;;;10.00;88.50;;;;;;5020363;28;20045;-45
2022/05/12 03:20:43;;;;;;;8.77;3.58;;;10.00;88.40;;;;;;5032209;28;20167;-45
2022/05/12 03:23:09;;;;;;;9.15;2.97;;;10.10;88.70;;;;;;5053800;28;20047;-45
2022/05/12 03:25:36;;;;;;;6.97;2.85;;;10.10;88.60;;;;;;5051285;28;20048;-44
2022/05/12 03:28:03;;;;;;;11.57;3.78;;;10.10;88.70;;;;;;5051166;28;20095;-43
2022/05/12 03:30:30;;;;;;;8.90;3.15;;;10.10;88.80;;;;;;5051933;28;20025;-46
2022/05/12 03:32:57;;;;;;;13.60;4.60;;;10.20;88.90;;;;;;5036007;28;20025;-44
2022/05/12 03:35:26;;;;;;;9.13;2.83;;;10.20;89.00;;;;;;5049643;28;20112;-47
2022/05/12 03:37:52;;;;;;;7.90;3.00;;;10.30;89.00;;;;;;5051718;28;20040;-47
2022/05/12 03:40:19;;;;;;;8.75;4.00;;;10.30;89.10;;;;;;5049218;28;20075;-46
2022/05/12 03:42:47;;;;;;;9.98;4.13;;;10.30;89.00;;;;;;5049549;28;20108;-44
2022/05/12 03:45:16;;;;;;;10.10;3.17;;;10.30;89.00;;;;;;5034313;28;20033;-44
2022/05/12 03:47:48;;;;;;;7.40;3.67;;;10.30;88.90;;;;;;5038839;28;20090;-45
2022/05/12 03:50:18;;;;;;;8.07;2.80;;;10.40;88.90;;;;;;5052346;28;20029;-44
2022/05/12 03:52:47;;;;;;;8.10;2.97;;;10.40;88.90;;;;;;5050772;28;20044;-44
2022/05/12 03:55:16;;;;;;;6.05;3.00;;;10.40;89.00;;;;;;5058303;28;20356;-44
2022/05/12 03:57:44;;;;;;;9.77;2.97;;;10.40;88.80;;;;;;5014134;28;20467;-43
2022/05/12 04:00:14;;;;;;;10.48;3.50;;;10.50;88.90;;;;;;5027187;28;20128;-44
2022/05/12 04:02:41;;;;;;;8.32;3.13;;;10.50;88.90;;;;;;5016701;28;20029;-46
2022/05/12 04:05:08;;;;;;;8.07;3.42;;;10.60;88.90;;;;;;5013004;28;20343;-44
2022/05/12 04:07:39;;;;;;;9.68;3.38;;;10.60;88.80;;;;;;5013410;28;20317;-46
2022/05/12 04:10:06;;;;;;;9.98;3.40;;;10.60;88.70;;;;;;5028212;28;20083;-46
2022/05/12 04:12:35;;;;;;;8.85;2.70;;;10.70;88.70;;;;;;5013321;28;20096;-44
2022/05/12 04:15:04;;;;;;;8.95;2.60;;;10.70;88.70;;;;;;5012995;28;20041;-43
2022/05/12 04:17:31;;;;;;;11.40;3.20;;;10.80;88.70;;;;;;5012950;28;20053;-46
2022/05/12 04:20:06;;;;;;;8.85;2.88;;;10.90;88.60;;;;;;5013508;28;20022;-46
2022/05/12 04:22:33;;;;;;;10.30;2.63;;;10.90;88.50;;;;;;5012805;28;20057;-44
2022/05/12 04:24:59;;;;;;;8.52;2.47;;;10.90;88.60;;;;;;5012878;28;20026;-44
2022/05/12 04:27:26;;;;;;;5.28;2.22;;;10.90;88.30;;;;;;5012621;28;20058;-48
2022/05/12 04:29:52;;;;;;;8.15;2.60;;;10.90;88.30;;;;;;5012787;28;20415;-44
2022/05/12 04:32:18;;;;;;;7.40;2.65;;;10.90;88.10;;;;;;5014629;28;20116;-43
2022/05/12 04:37:32;;;;;;;5.85;2.35;;;10.90;87.70;;;;;;5012400;28;20041;-44
2022/05/12 04:40:19;;;;;;;8.45;2.60;;;11.00;87.70;;;;;;5012906;28;20096;-49
2022/05/12 04:42:50;;;;;;;10.68;2.25;;;11.10;87.40;;;;;;5011831;28;20691;-46
2022/05/12 04:45:18;;;;;;;13.15;3.67;;;11.10;87.30;;;;;;5012127;28;20034;-43
2022/05/12 04:47:45;;;;;;;9.98;3.22;;;11.20;87.20;;;;;;5043632;28;20773;-44
2022/05/12 04:50:18;;;;;;;11.13;3.35;;;11.30;87.10;;;;;;5012147;28;20033;-44
2022/05/12 04:52:45;;;;;;;5.97;2.35;;;11.30;86.80;;;;;;5012586;28;20021;-43
2022/05/12 04:55:11;;;;;;;9.07;2.47;;;11.40;86.90;;;;;;5007898;28;20460;-44
2022/05/12 04:57:42;;;;;;;7.85;2.50;;;11.40;86.80;;;;;;4994935;28;20037;-44
2022/05/12 05:00:14;;;;;;;14.82;3.28;;;11.50;86.80;;;;;;5012008;28;20030;-44
2022/05/12 05:02:45;;;;;;;8.40;2.95;;;11.60;86.70;;;;;;5009990;28;20359;-44
2022/05/12 05:05:12;;;;;;;11.95;3.92;;;11.60;86.60;;;;;;5012611;28;20128;-43
2022/05/12 05:07:39;;;;;;;8.30;2.55;;;11.70;86.60;;;;;;5014432;28;20101;-44
2022/05/12 05:10:06;;;;;;;8.70;2.63;;;11.80;86.40;;;;;;5016327;28;20345;-43
2022/05/12 05:12:33;;;;;;;10.90;3.58;;;11.90;86.30;;;;;;5016206;28;20360;-45
2022/05/12 05:15:04;;;;;;;8.50;3.17;;;11.90;86.10;;;;;;5015508;28;20095;-42
2022/05/12 05:17:31;;;;;;;8.23;2.63;;;11.90;86.30;;;;;;5015478;28;20022;-43
2022/05/12 05:19:57;;;;;;;8.38;3.13;;;11.90;86.00;;;;;;5016502;28;20363;-43
2022/05/12 05:22:23;;;;;;;11.70;3.58;;;11.90;85.90;;;;;;5044547;28;20425;-44
2022/05/12 05:24:49;;;;;;;8.50;3.00;;;11.90;86.10;;;;;;5016402;28;20113;-43
2022/05/12 05:27:18;;;;;;;11.48;3.85;;;11.90;86.10;;;;;;5047550;28;20099;-42
2022/05/12 05:29:45;;;;;;;7.63;3.47;;;11.90;86.00;;;;;;5016144;28;20032;-42
2022/05/12 05:32:12;;;;;;;6.97;3.50;;;11.90;86.00;;;;;;5047528;28;20049;-43
2022/05/12 05:34:42;;;;;;;7.18;4.18;;;12.10;85.70;;;;;;5015626;28;20083;-43
2022/05/12 05:37:11;;;;;;;6.82;3.85;;;12.10;85.40;;;;;;5016233;28;20131;-42
2022/05/12 05:39:37;;;;;;;9.73;3.80;;;12.40;85.20;;;;;;5041388;28;20038;-43
2022/05/12 05:42:09;;;;;;;6.28;3.13;;;12.50;84.80;;;;;;5015448;28;20022;-44
2022/05/12 05:44:35;;;;;;;9.48;4.07;;;12.80;84.20;;;;;;5018515;28;20080;-43
2022/05/12 05:47:03;;;;;;;8.95;3.45;;;13.00;83.70;;;;;;5015222;28;20045;-42
2022/05/12 05:49:33;;;;;;;5.55;3.13;;;13.00;83.20;;;;;;5015437;28;20046;-43
2022/05/12 05:54:44;;;;;;;8.32;3.03;;;13.00;83.10;;;;;;5015645;28;20507;-42
2022/05/12 05:57:10;;;;;;;7.10;2.58;;;13.00;82.70;;;;;;5015138;28;20116;-42
2022/05/12 05:59:37;;;;;;;10.38;2.80;;;12.70;83.40;;;;;;5014839;28;20032;-42
2022/05/12 06:02:05;;;;;;;6.15;3.08;;;12.70;84.00;;;;;;5023187;28;20500;-45
2022/05/12 06:04:32;;;;;;;10.70;3.03;;;12.70;83.90;;;;;;5013621;28;20682;-43
2022/05/12 06:06:59;;;;;;;14.05;3.92;;;12.70;84.20;;;;;;5046323;28;20428;-43
2022/05/12 06:09:25;;;;;;;9.13;3.00;;;12.60;84.20;;;;;;5013324;28;20479;-46
2022/05/12 06:11:51;;;;;;;7.65;3.08;;;12.60;84.40;;;;;;5013590;28;20038;-43
2022/05/12 06:14:17;;;;;;;9.82;3.53;;;12.60;84.80;;;;;;5013835;28;20088;-43
2022/05/12 06:16:44;;;;;;;11.75;3.25;;;12.70;84.70;;;;;;5027335;28;20057;-43
2022/05/12 06:19:11;;;;;;;7.40;3.13;;;12.80;84.70;;;;;;4995319;28;20117;-43
2022/05/12 06:21:38;;;;;;;10.77;3.75;;;12.90;84.30;;;;;;5013119;28;20076;-43
2022/05/12 06:24:05;;;;;;;13.15;3.28;;;12.90;84.20;;;;;;4997036;28;20477;-44
2022/05/12 06:26:31;;;;;;;7.90;3.45;;;12.90;84.10;;;;;;5011965;28;20037;-43
2022/05/12 06:28:58;;;;;;;10.80;3.53;;;12.90;83.60;;;;;;5013608;28;20040;-44
2022/05/12 06:31:29;;;;;;;8.63;3.40;;;12.90;83.90;;;;;;5008954;28;20340;-44
2022/05/12 06:33:59;;;;;;;9.18;3.22;;;13.00;83.90;;;;;;5011490;28;20032;-43
2022/05/12 06:36:29;;;;;;;9.77;3.13;;;13.10;83.90;;;;;;5011456;28;20068;-44
2022/05/12 06:38:56;;;;;;;;;;;13.10;83.50;;;;;;4997320;28;20616;-43
2022/05/12 06:41:24;;;;;;;9.13;3.15;;;13.20;83.50;;;;;;5012875;28;19916;-45
2022/05/12 06:43:54;;;;;;;8.95;2.80;;;13.20;83.60;;;;;;5013887;28;20048;-43
2022/05/12 06:46:21;;;;;;;;;;;13.20;82.60;;;;;;5011299;28;20133;-45
2022/05/12 06:48:50;;;;;;;5.68;2.72;;;13.30;82.50;;;;;;5011983;28;20258;-45
2022/05/12 06:51:18;;;;;;;8.65;2.63;;;13.40;82.70;;;;;;5013517;28;20029;-44
2022/05/12 06:53:44;;;;;;;11.30;2.70;;;13.40;82.10;;;;;;5014027;28;20367;-44
2022/05/12 06:56:13;;;;;;;12.98;3.50;;;13.40;81.50;;;;;;5013736;28;20039;-44
2022/05/12 06:58:42;;;;;;;8.23;2.90;;;13.40;81.30;;;;;;5013901;28;20033;-44
2022/05/12 07:01:10;;;;;;;9.90;2.63;;;13.50;81.80;;;;;;5017367;28;20026;-44
2022/05/12 07:03:38;;;;;;;7.88;2.47;;;13.50;81.50;;;;;;5014131;28;20439;-44
2022/05/12 07:06:06;;;;;;;8.00;3.40;;;13.70;81.90;;;;;;5010545;28;20069;-44
2022/05/12 07:08:43;;;;;;;14.90;2.40;;;13.70;81.00;;;;;;4996917;28;20025;-47
2022/05/12 07:11:10;;;;;;;9.52;2.65;;;13.70;80.40;;;;;;5014162;28;20116;-44
2022/05/12 07:13:37;;;;;;;9.98;2.83;;;13.80;80.20;;;;;;5045551;28;20053;-44
2022/05/12 07:16:04;;;;;;;9.02;2.67;;;13.90;79.80;;;;;;5011790;28;20026;-45
2022/05/12 07:18:33;;;;;;;9.02;2.75;;;14.20;79.70;;;;;;5028823;28;20044;-45
2022/05/12 07:26:35;;;;;;;6.72;1.70;;;15.20;74.80;;;;;;5012976;28;20036;-48
2022/05/12 07:29:07;;;;;;;11.07;2.30;;;15.60;73.80;;;;;;5012590;28;20034;-45
2022/05/12 07:31:34;;;;;;;12.15;3.08;;;16.10;73.10;;;;;;5012641;28;20030;-48
2022/05/12 07:34:05;;;;;;;10.23;2.03;;;16.40;70.90;;;;;;5010923;28;20027;-46
2022/05/12 07:36:36;;;;;;;8.13;2.10;;;17.00;71.40;;;;;;5010580;28;20045;-45
2022/05/12 07:39:03;;;;;;;9.02;2.38;;;17.30;66.90;;;;;;5012638;28;20073;-45
2022/05/12 07:41:30;;;;;;;10.95;2.85;;;17.40;67.00;;;;;;5009012;28;20018;-46
2022/05/12 07:43:57;;;;;;;7.93;1.90;;;17.70;65.50;;;;;;5012267;28;20030;-46
2022/05/12 07:46:32;;;;;;;5.88;2.35;;;18.10;64.50;;;;;;5011199;28;20029;-45
2022/05/12 07:48:59;;;;;;;7.50;2.15;;;18.20;63.80;;;;;;5013133;28;20056;-46
2022/05/12 07:51:26;;;;;;;5.95;1.90;;;18.30;62.00;;;;;;5010282;28;20084;-45
2022/05/12 07:53:53;;;;;;;8.68;1.90;;;18.60;63.60;;;;;;5011902;28;20392;-48
2022/05/12 07:56:22;;;;;;;6.65;2.15;;;18.90;61.10;;;;;;5010496;28;20053;-45
2022/05/12 07:58:49;;;;;;;8.90;2.65;;;19.00;60.60;;;;;;5007272;28;20062;-45
2022/05/12 08:01:17;;;;;;;5.65;1.52;;;19.30;60.10;;;;;;5016441;28;20030;-48
2022/05/12 08:03:44;;;;;;;5.07;1.70;;;19.30;58.80;;;;;;5015675;28;20088;-46
2022/05/12 08:06:14;;;;;;;6.53;1.55;;;19.40;58.10;;;;;;5011304;28;20037;-45
2022/05/12 08:08:48;;;;;;;4.35;1.58;;;19.60;57.60;;;;;;4976906;28;20056;-45
2022/05/12 08:11:15;;;;;;;4.63;1.42;;;19.80;57.50;;;;;;5001294;28;20021;-45
2022/05/12 08:13:47;;;;;;;6.07;2.15;;;20.10;55.50;;;;;;5012111;28;20033;-43
2022/05/12 08:16:15;;;;;;;6.60;2.65;;;20.00;55.30;;;;;;5011192;28;20054;-45
2022/05/12 08:18:44;;;;;;;5.15;1.70;;;20.20;54.40;;;;;;5042224;28;20041;-45
2022/05/12 08:21:10;;;;;;;7.90;1.83;;;20.20;56.60;;;;;;5012388;28;20045;-45
2022/05/12 08:23:36;;;;;;;7.43;1.75;;;20.30;54.20;;;;;;5011086;28;20029;-46
2022/05/12 08:26:02;;;;;;;6.72;2.35;;;20.40;54.90;;;;;;5011656;28;20112;-47
2022/05/12 08:28:28;;;;;;;6.47;1.40;;;20.70;53.20;;;;;;5003415;28;20244;-46
2022/05/12 08:30:56;;;;;;;4.03;0.98;;;20.40;54.40;;;;;;5010598;28;20437;-48
2022/05/12 08:33:23;;;;;;;4.15;0.90;;;19.60;54.40;;;;;;5011914;28;20455;-48
2022/05/12 08:35:50;;;;;;;6.10;1.35;;;19.10;56.70;;;;;;5011038;28;20357;-48
2022/05/12 08:38:21;;;;;;;3.83;1.20;;;19.10;55.80;;;;;;5012214;28;20135;-47
2022/05/12 08:41:27;;;;;;;6.75;1.67;;;19.60;54.70;;;;;;5012315;28;20632;-45
2022/05/12 08:44:13;;;;;;;4.43;1.30;;;20.00;54.30;;;;;;5016353;28;20084;-48
2022/05/12 08:47:01;;;;;;;3.50;1.30;;;19.60;54.70;;;;;;5011388;28;20061;-46
2022/05/12 08:49:52;;;;;;;4.90;1.15;;;19.90;53.70;;;;;;5001700;28;20506;-46
2022/05/12 08:52:38;;;;;;;11.40;1.27;;;19.40;56.00;;;;;;5013555;28;20034;-46
2022/05/12 08:55:16;;;;;;;3.67;1.75;;;18.60;56.30;;;;;;5045710;28;20119;-46
2022/05/12 08:57:59;;;;;;;4.55;1.58;;;18.80;57.30;;;;;;5016126;28;20025;-47
2022/05/12 09:00:33;;;;;;;2.75;0.73;;;19.00;56.60;;;;;;5005306;28;20038;-45
2022/05/12 09:03:04;;;;;;;3.13;0.90;;;19.70;56.40;;;;;;5024728;28;20485;-50
2022/05/12 09:05:37;;;;;;;6.28;1.48;;;20.20;53.90;;;;;;5011599;28;20320;-47
2022/05/12 09:08:42;;;;;;;7.15;1.13;;;20.50;53.80;;;;;;5014351;28;20034;-46
2022/05/12 09:11:49;;;;;;;5.35;1.20;;;19.90;53.10;;;;;;5007602;28;20351;-45
2022/05/12 09:14:25;;;;;;;4.63;1.38;;;19.80;53.70;;;;;;5018393;28;20060;-50
2022/05/12 09:16:53;;;;;;;3.97;1.45;;;19.80;56.00;;;;;;5011590;28;20474;-46
2022/05/12 09:19:20;;;;;;;5.80;1.55;;;20.40;55.10;;;;;;5001039;28;20459;-48
2022/05/12 09:21:46;;;;;;;5.22;1.50;;;20.80;52.60;;;;;;5015219;28;20708;-46
2022/05/12 09:24:13;;;;;;;4.43;1.25;;;21.00;52.80;;;;;;5046099;28;20026;-48
2022/05/12 09:26:49;;;;;;;8.13;2.42;;;20.10;50.10;;;;;;5015961;28;20030;-45
2022/05/12 09:29:33;;;;;;;4.55;0.95;;;18.90;54.20;;;;;;4996317;28;20045;-47
2022/05/12 09:32:07;;;;;;;4.03;1.20;;;18.30;54.20;;;;;;5009983;28;20095;-45
2022/05/12 09:34:43;;;;;;;13.20;2.55;;;18.90;56.30;;;;;;5015107;28;20036;-45
2022/05/12 09:37:26;;;;;;;4.78;1.30;;;19.60;53.80;;;;;;5015221;28;20030;-46
2022/05/12 09:40:12;;;;;;;6.25;1.50;;;20.10;51.50;;;;;;5017587;28;20030;-45
2022/05/12 09:42:45;;;;;;;5.18;1.50;;;19.40;52.70;;;;;;5014652;28;20369;-48
2022/05/12 09:45:34;;;;;;;4.72;1.10;;;18.50;53.20;;;;;;5016451;28;20036;-49
2022/05/12 09:48:23;;;;;;;6.78;1.27;;;18.10;54.10;;;;;;5014431;28;20333;-51
2022/05/12 09:50:53;;;;;;;5.15;1.55;;;18.80;55.20;;;;;;5014860;28;20410;-45
2022/05/12 09:53:30;;;;;;;9.10;1.65;;;18.90;52.50;;;;;;5014731;28;20065;-46
2022/05/12 09:56:26;;;;;;;6.43;1.58;;;19.40;52.40;;;;;;5039033;28;20041;-45
2022/05/12 09:59:23;;;;;;;7.13;1.58;;;19.60;51.90;;;;;;5045540;28;20029;-46
2022/05/12 10:01:54;;;;;;;4.25;1.05;;;20.40;50.60;;;;;;5046765;28;20114;-47
2022/05/12 10:10:25;;;;;;;5.35;1.95;;;19.20;51.10;;;;;;5034031;28;20051;-46
2022/05/12 10:13:05;;;;;;;5.53;1.98;;;18.40;53.10;;;;;;5034430;28;20121;-46
2022/05/12 10:15:37;;;;;;;4.00;1.20;;;17.90;54.20;;;;;;5052126;28;20033;-45
2022/05/12 10:18:08;;;;;;;6.63;1.35;;;18.20;52.80;;;;;;5051771;28;20032;-47
2022/05/12 10:20:41;;;;;;;3.78;1.15;;;17.90;52.80;;;;;;5053630;28;20104;-45
2022/05/12 10:23:36;;;;;;;5.75;1.17;;;17.40;52.60;;;;;;5035676;28;20041;-48
2022/05/12 10:26:09;;;;;;;6.85;1.90;;;17.80;55.00;;;;;;5052858;28;20508;-47
2022/05/12 10:29:00;;;;;;;5.38;1.73;;;18.60;52.90;;;;;;5053171;28;20413;-47
2022/05/12 10:31:43;;;;;;;4.25;1.27;;;18.90;52.00;;;;;;5039488;28;20040;-46
2022/05/12 10:34:47;;;;;;;3.47;1.10;;;18.50;50.90;;;;;;5051856;28;20481;-49
2022/05/12 10:37:33;;;;;;;4.13;1.88;;;19.00;52.80;;;;;;5051926;28;20108;-48
2022/05/12 10:40:26;;;;;;;3.90;1.02;;;19.20;49.10;;;;;;5050722;28;20029;-46
2022/05/12 10:43:16;;;;;;;5.80;0.95;;;18.60;48.90;;;;;;5053100;28;20060;-46
2022/05/12 10:46:03;;;;;;;3.95;1.15;;;18.80;50.80;;;;;;5050894;28;20338;-46
2022/05/12 10:48:58;;;;;;;5.75;1.45;;;19.50;50.10;;;;;;5052761;28;20032;-45
2022/05/12 10:52:01;;;;;;;3.90;1.25;;;19.70;48.40;;;;;;5053032;28;20497;-45
2022/05/12 10:54:54;;;;;;;3.97;1.05;;;19.80;48.60;;;;;;5052551;28;20044;-46
2022/05/12 10:57:38;;;;;;;5.75;0.98;;;19.80;49.90;;;;;;5023648;28;20057;-49
2022/05/12 11:00:42;;;;;;;5.63;1.13;;;19.90;44.40;;;;;;5033166;28;20037;-49
2022/05/12 11:03:18;;;;;;;3.45;1.35;;;19.50;46.20;;;;;;5037561;28;20032;-46
2022/05/12 11:05:51;;;;;;;4.63;1.45;;;19.20;49.20;;;;;;5047316;28;20025;-46
2022/05/12 11:08:41;;;;;;;4.60;1.65;;;19.10;49.50;;;;;;5032673;28;20048;-46
2022/05/12 11:11:48;;;;;;;3.35;1.33;;;19.20;48.10;;;;;;5033003;28;20029;-47
2022/05/12 11:14:33;;;;;;;5.18;1.45;;;19.40;50.10;;;;;;5033112;28;20037;-45
2022/05/12 11:17:27;;;;;;;6.30;1.40;;;20.00;49.00;;;;;;5061918;28;20059;-45
2022/05/12 11:20:13;;;;;;;6.00;1.58;;;19.90;46.60;;;;;;5033007;28;20059;-46
2022/05/12 11:23:04;;;;;;;4.70;1.45;;;19.70;47.70;;;;;;5033863;28;20040;-51
2022/05/12 11:25:59;;;;;;;4.55;1.35;;;19.20;48.20;;;;;;5033893;28;20032;-48
2022/05/12 11:32:28;;;;;;;3.22;0.80;;;18.90;47.40;;;;;;5016811;28;20143;-45
2022/05/12 11:35:03;;;;;;;3.85;1.20;;;19.20;45.90;;;;;;5005625;28;20054;-48
2022/05/12 11:37:38;;;;;;;5.68;1.20;;;19.60;46.80;;;;;;5036861;28;20091;-46
2022/05/12 11:40:40;;;;;;;4.82;1.30;;;19.80;46.80;;;;;;5013919;28;20574;-47
2022/05/12 11:46:43;;;;;;;5.25;2.22;;;19.90;47.60;;;;;;5033305;28;20083;-48
2022/05/12 11:49:31;;;;;;;4.53;1.70;;;19.70;47.80;;;;;;5033594;28;20406;-47
2022/05/12 11:52:34;;;;;;;5.03;2.00;;;19.40;50.10;;;;;;5033373;28;20038;-49
2022/05/12 11:55:20;;;;;;;4.32;1.13;;;19.00;50.30;;;;;;5037133;28;20186;-48
2022/05/12 11:57:57;;;;;;;4.32;1.48;;;19.10;49.40;;;;;;5053284;28;20095;-48
2022/05/12 12:00:53;;;;;;;7.00;2.00;;;19.40;50.10;;;;;;5051653;28;20396;-45
2022/05/12 12:03:19;;;;;;;5.47;1.70;;;19.00;49.60;;;;;;5047580;28;20057;-46
2022/05/12 12:05:50;;;;;;;4.53;1.42;;;19.30;50.10;;;;;;5033281;28;20065;-47
2022/05/12 12:08:44;;;;;;;6.45;1.65;;;19.90;53.90;;;;;;5032821;28;20022;-49
2022/05/12 12:11:19;;;;;;;7.07;2.58;;;20.00;48.70;;;;;;5040096;28;20033;-48
2022/05/12 12:13:53;;;;;;;3.78;1.60;;;19.70;49.30;;;;;;5046267;28;20023;-46
2022/05/12 12:16:28;;;;;;;4.97;1.70;;;19.10;49.80;;;;;;5051771;28;20459;-46
2022/05/12 12:19:33;;;;;;;5.88;1.67;;;18.80;51.50;;;;;;5050877;28;20033;-47
2022/05/12 12:22:42;;;;;;;5.75;1.70;;;19.10;52.10;;;;;;5050448;28;20103;-47
2022/05/12 12:25:20;;;;;;;6.60;1.40;;;19.20;49.60;;;;;;5040759;28;20148;-46
2022/05/12 12:27:57;;;;;;;6.55;1.67;;;18.80;51.20;;;;;;5050828;28;20025;-45
2022/05/12 12:30:38;;;;;;;6.30;1.98;;;18.70;52.70;;;;;;5049509;28;20132;-46
2022/05/12 12:33:35;;;;;;;8.85;2.38;;;18.40;51.50;;;;;;5048900;28;20453;-47
2022/05/12 12:36:04;;;;;;;9.13;1.55;;;18.40;53.10;;;;;;5048206;28;20047;-45
2022/05/12 12:38:45;;;;;;;8.15;1.90;;;19.00;53.90;;;;;;5045475;28;20044;-46
2022/05/12 12:41:29;;;;;;;5.57;1.73;;;19.30;51.80;;;;;;5032549;28;20349;-47
2022/05/12 12:44:09;;;;;;;6.53;1.58;;;19.10;51.00;;;;;;5033300;28;20510;-45
2022/05/12 12:46:58;;;;;;;6.25;1.25;;;18.60;52.40;;;;;;5049804;28;20029;-49
2022/05/12 12:49:35;;;;;;;4.57;1.55;;;18.40;53.60;;;;;;5051402;28;20021;-49
2022/05/12 12:52:21;;;;;;;8.85;1.90;;;18.80;53.00;;;;;;5047908;28;20056;-46
2022/05/12 12:57:47;;;;;;;5.68;1.63;;;18.70;52.80;;;;;;5030898;28;20501;-46
2022/05/12 13:00:26;;;;;;;4.10;1.60;;;18.50;52.10;;;;;;5041308;28;20087;-49
2022/05/12 13:03:00;;;;;;;;;;;18.90;52.60;;;;;;5035891;28;20479;-46
2022/05/12 13:05:29;;;;;;;7.18;2.22;;;19.00;50.50;;;;;;5041259;28;19909;-46
2022/05/12 13:08:08;;;;;;;6.05;1.50;;;19.20;50.10;;;;;;5049908;28;20044;-46
2022/05/12 13:10:49;;;;;;;5.38;1.27;;;19.00;49.10;;;;;;5047045;28;20044;-46
2022/05/12 13:13:15;;;;;;;7.55;1.75;;;18.60;51.00;;;;;;5034116;28;20394;-46
2022/05/12 13:15:46;;;;;;;3.63;1.70;;;18.70;51.70;;;;;;5032556;28;20030;-45
2022/05/12 13:18:27;;;;;;;6.53;1.92;;;19.10;51.90;;;;;;5031653;28;20192;-47
2022/05/12 13:20:57;;;;;;;4.65;1.73;;;19.10;49.70;;;;;;5052427;28;20021;-46
2022/05/12 13:23:32;;;;;;;4.90;1.50;;;19.10;50.90;;;;;;5046683;28;20365;-46
2022/05/12 13:26:08;;;;;;;6.10;1.60;;;18.90;47.20;;;;;;5065052;28;20094;-48
2022/05/12 13:28:37;;;;;;;5.90;1.50;;;19.10;49.00;;;;;;5036623;28;20527;-46
2022/05/12 13:31:41;;;;;;;6.75;1.27;;;18.90;48.40;;;;;;5053148;28;20025;-45
2022/05/12 13:34:19;;;;;;;2.50;0.98;;;18.90;47.40;;;;;;5053365;28;20544;-46
2022/05/12 13:37:15;;;;;;;2.95;0.60;;;19.00;45.40;;;;;;5056261;28;20098;-45
2022/05/12 13:40:03;;;;;;;4.18;0.90;;;18.80;46.20;;;;;;5050759;28;20458;-45
2022/05/12 13:42:39;;;;;;;4.40;0.95;;;18.60;48.20;;;;;;5052561;28;20040;-46